Tiempo atmosférico en la estación meteorológica de La Almunia De Doña Godina, Zaragoza (370 m.)



Fecha
DESCASC
Temp. máxima en grados centígrados (hora)
DESCASC
Temp. mínima en grados centígrados (hora)
DESCASC
Temp. media en grados centígrados
DESCASC
Racha de viento máxima en m/sg (hora)
DESCASC
Velocidad máxima media en intervalos de 10 minutos(hora)
DESCASC
Precipitaciones diarias en mm
DESCASC
Precipitaciones de 00:00 a 06:00 en mm
DESCASC
Precipitaciones de 06:00 a 12:00 en mm
DESCASC
Precipitaciones de 12:00 a 18:00 en mm
DESCASC
Precipitaciones de 18:00 a 24:00 en mm
DESCASC
18-08-2019 39.2 (16:00) 18.9 (07:20) 29.1 10.83 (21:00) 6.11 (20:40) 0 0 0 0 0
17-08-2019 39.7 (18:10) 18.4 (07:30) 29.1 7.5 (19:00) 3.89 (19:00) 0 0 0 0 0
16-08-2019 35 (17:20) 14.8 (07:50) 24.9 6.67 (15:00) 3.89 (18:10) 0 0 0 0 0
15-08-2019 29.4 (16:50) 16.4 (00:00) 22.9 10.56 (19:10) 6.67 (19:30) 0 0 0 0 0
14-08-2019 32.1 (16:40) 11.9 (00:00) 22 6.94 (14:50) 4.17 (14:50) 0 0 0 0 0
13-08-2019 26.6 (17:40) 15.3 (00:00) 21 8.89 (18:20) 5.56 (18:20) 0 0 0 0 0
12-08-2019 25.4 (16:10) 15.5 (00:00) 20.4 13.06 (19:30) 8.61 (19:40) 0 0 0 0 0
11-08-2019 29.3 (16:00) 18.3 (00:00) 23.8 9.72 (21:00) 5.28 (21:00) 0 0 0 0 0
10-08-2019 30.5 (16:30) 20.5 (00:00) 25.5 8.06 (01:30) 4.72 (17:10) 0 0 0 0 0
09-08-2019 38 (16:20) 21.2 (00:00) 29.6 13.61 (14:10) 6.67 (15:40) 0 0 0 0 0
08-08-2019 37.7 (17:20) 21.8 (00:00) 29.8 14.72 (14:20) 4.44 (15:30) 0 0 0 0 0
07-08-2019 30.7 (14:20) 20.4 (00:00) 25.6 7.5 (18:10) 3.89 (05:10) 0 0 0 0 0
06-08-2019 35.4 (17:50) 19.3 (00:00) 27.4 7.78 (16:30) 5 (16:30) 0 0 0 0 0
05-08-2019 37.3 (18:40) 19.7 (00:00) 28.5 6.67 (03:40) 3.89 (17:40) 0 0 0 0 0
04-08-2019 35.8 (17:50) 18.8 (00:00) 27.3 6.67 (16:50) 4.44 (16:50) 0 0 0 0 0
03-08-2019 37.9 (17:30) 16.5 (00:00) 27.2 7.78 (13:10) 3.61 (18:20) 0 0 0 0 0
02-08-2019 32.8 (18:20) 18.4 (00:00) 25.6 6.11 (16:30) 3.61 (00:50) 0 0 0 0 0
01-08-2019 32.5 (17:20) 19 (00:00) 25.8 7.78 (23:00) 4.72 (20:00) 0 0 0 0 0
31-07-2019 31.8 (19:10) 15 (00:00) 23.4 8.33 (18:30) 3.89 (17:10) 0 0 0 0 0
30-07-2019 27.2 (17:10) 17.1 (00:00) 22.2 11.67 (20:10) 7.22 (20:10) 0 0 0 0 0
29-07-2019 36.4 (17:30) 14.6 (00:00) 25.5 9.17 (21:30) 4.72 (23:10) 0 0 0 0 0
28-07-2019 27.1 (17:10) 14.2 (00:00) 20.7 9.17 (10:40) 5.28 (10:40) 0 0 0 0 0
27-07-2019 27.4 (13:00) 17.9 (00:00) 22.6 13.89 (12:10) 6.94 (17:50) 2.8 0 0 2.8 0
26-07-2019 29.8 (16:10) 19.9 (00:00) 24.8 8.89 (20:30) 5 (15:50) 0.2 0 0 0 0.2
25-07-2019 38.5 (15:00) 22.2 (00:00) 30.4 17.5 (19:00) 7.5 (16:10) 2.4 0 0 0 2.4
24-07-2019 40.8 (15:50) 20.1 (00:00) 30.4 9.17 (00:10) 5.28 (15:40) 0 0 0 0 0

Gráficas

Temp. máximas Temp. mínimas Temp. medias Precipitaciones Rachas de viento máximas Velocidades máximas media en intervalos de 10 minutos

Datos horarios

Fecha y hora oficial Temperatura (ºC) Velocidad del viento (km/h) Dirección del viento Racha (km/h) Dirección de racha Precipitación (mm) Presión (hPa) Tendencia (hPa) Humedad (%)
2019-08-22 23:00:00 18.9 2 Sudoeste 6 Sur 0 -- -- 71
2019-08-22 22:00:00 20.2 4 Sudoeste 7 Sudoeste 0 -- -- 70
2019-08-22 21:00:00 23.4 5 Sudoeste 8 Sudoeste 0 -- -- 60
2019-08-22 20:00:00 27.7 4 Nordeste 13 Nordeste 0 -- -- 42
2019-08-22 19:00:00 29.2 7 Nordeste 16 Este 0 -- -- 37
2019-08-22 18:00:00 29.4 8 Nordeste 20 Norte 0 -- -- 35
2019-08-22 17:00:00 29.2 11 Nordeste 21 Nordeste 0 -- -- 35
2019-08-22 16:00:00 28.5 12 Nordeste 22 Nordeste 0 -- -- 37
2019-08-22 15:00:00 27.2 9 Nordeste 17 Nordeste 0 -- -- 40
2019-08-22 14:00:00 26 8 Norte 20 Nordeste 0 -- -- 41
2019-08-22 13:00:00 25.5 8 Nordeste 16 Nordeste 0 -- -- 41
2019-08-22 12:00:00 23.8 7 Nordeste 15 Norte 0 -- -- 48
2019-08-22 11:00:00 22.9 6 Nordeste 13 Nordeste 0 -- -- 50
2019-08-22 10:00:00 21.1 2 Sudeste 5 Sur 0 -- -- 63
2019-08-22 09:00:00 17.6 3 Sudoeste 9 Sudoeste 0 -- -- 80
2019-08-22 08:00:00 14 3 Oeste 5 Oeste 0 -- -- 94
2019-08-22 07:00:00 13.8 2 Sudoeste 6 Sudoeste 0 -- -- 91
2019-08-22 06:00:00 14.7 3 Sudoeste 5 Sudoeste 0 -- -- 90
2019-08-22 05:00:00 15.5 5 Sudoeste 10 Sudoeste 0 -- -- 89
2019-08-22 04:00:00 16.1 3 Noroeste 9 Sudoeste 0 -- -- 87
2019-08-22 03:00:00 16.9 2 Sur 11 Sur 0 -- -- 83
2019-08-22 02:00:00 17.8 8 Sudoeste 11 Sudoeste 0 -- -- 83
2019-08-22 01:00:00 19.5 3 Sur 10 Sudoeste 0 -- -- 75
2019-08-22 00:00:00 20.9 0 Calma 13 Noroeste 0 -- -- 74
2019-08-21 23:00:00 22 5 Norte 12 Oeste 0 -- -- 72
2019-08-21 22:00:00 21.8 3 Sudoeste 8 Oeste 0 -- -- 75
2019-08-21 21:00:00 22.5 5 Sudoeste 8 Sudoeste 0 -- -- 78
2019-08-21 20:00:00 23.8 3 Oeste 8 Norte 0 -- -- 68
2019-08-21 19:00:00 23.9 3 Norte 8 Norte 0 -- -- 67
2019-08-21 18:00:00 24.3 6 Norte 12 Nordeste 0 -- -- 65
2019-08-21 17:00:00 25.9 8 Nordeste 17 Este 0 -- -- 56
2019-08-21 16:00:00 26.8 10 Nordeste 17 Nordeste 0 -- -- 51
2019-08-21 15:00:00 25.5 6 Nordeste 13 Norte 0 -- -- 55
2019-08-21 14:00:00 24.1 5 Nordeste 17 Noroeste 0.2 -- -- 57
2019-08-21 13:00:00 22.4 4 Nordeste 13 Sudeste 0 -- -- 60
2019-08-21 12:00:00 22.5 4 Este 10 Este 0 -- -- 61
2019-08-21 11:00:00 20.7 4 Nordeste 12 Este 0 -- -- 64
2019-08-21 10:00:00 19.6 7 Este 12 Este 0 -- -- 68
2019-08-21 09:00:00 18.1 4 Nordeste 7 Nordeste 0 -- -- 75
2019-08-21 08:00:00 16.5 2 Este 8 Este 0 -- -- 81
2019-08-21 07:00:00 17 5 Sudeste 12 Sudeste 0 -- -- 77
2019-08-21 06:00:00 17.7 6 Este 13 Este 0 -- -- 74
2019-08-21 05:00:00 18 5 Este 15 Sudeste 0 -- -- 73
2019-08-21 04:00:00 18 6 Sudeste 16 Sudeste 0 -- -- 72
2019-08-21 03:00:00 17.9 7 Sudeste 15 Sudeste 0 -- -- 72
2019-08-21 02:00:00 17.9 9 Sudeste 14 Sudeste 0 -- -- 73
2019-08-21 01:00:00 18 8 Sudeste 14 Sudeste 0 -- -- 73
2019-08-21 00:00:00 17.2 5 Sur 11 Sudoeste 0 -- -- 79
2019-08-20 23:00:00 18 6 Sudoeste 9 Sudoeste 0 -- -- 78
2019-08-20 22:00:00 20 4 Nordeste 13 Nordeste 0 -- -- 64
2019-08-20 21:00:00 21.2 4 Norte 22 Norte 0 -- -- 63
2019-08-20 20:00:00 23.3 14 Norte 28 Norte 0 -- -- 55
2019-08-20 19:00:00 24.3 8 Nordeste 26 Nordeste 0 -- -- 54
2019-08-20 18:00:00 24.7 13 Nordeste 26 Nordeste 0 -- -- 53
2019-08-20 17:00:00 24.6 15 Nordeste 27 Nordeste 0 -- -- 54
2019-08-20 16:00:00 24 14 Nordeste 26 Nordeste 0 -- -- 56
2019-08-20 15:00:00 23.1 16 Nordeste 30 Nordeste 0 -- -- 60
2019-08-20 14:00:00 21.5 10 Norte 20 Norte 0 -- -- 65
2019-08-20 13:00:00 20.8 5 Nordeste 12 Noroeste 0 -- -- 70
2019-08-20 12:00:00 17.8 2 Nordeste 12 Sudeste 0 -- -- 86
2019-08-20 11:00:00 16.5 7 Sudeste 12 Sudeste 0 -- -- 91
2019-08-20 10:00:00 15.8 5 Sudeste 11 Sudeste 1.6 -- -- 94
2019-08-20 09:00:00 15.7 3 Este 10 Nordeste 5.4 -- -- 95
2019-08-20 08:00:00 15.9 6 Sudeste 10 Este 4 -- -- 93
2019-08-20 07:00:00 15.7 5 Sudeste 10 Sudeste 0.2 -- -- 94
2019-08-20 06:00:00 15.8 6 Sudeste 11 Sudeste 3.6 -- -- 93
2019-08-20 05:00:00 16 4 Este 11 Norte 6.6 -- -- 92
2019-08-20 04:00:00 16.3 7 Nordeste 22 Norte 0 -- -- 90
2019-08-20 03:00:00 17.7 10 Norte 22 Nordeste 0 -- -- 80
2019-08-20 02:00:00 18.1 6 Nordeste 18 Nordeste 0 -- -- 80
2019-08-20 01:00:00 18.4 9 Nordeste 15 Nordeste 0 -- -- 75
2019-08-20 00:00:00 18.9 6 Nordeste 18 Norte 0 -- -- 72
2019-08-19 23:00:00 19.1 13 Norte 23 Nordeste 0 -- -- 71
2019-08-19 22:00:00 20.5 13 Nordeste 22 Nordeste 0 -- -- 63
2019-08-19 21:00:00 21.4 10 Nordeste 17 Nordeste 0 -- -- 59
2019-08-19 20:00:00 22.3 9 Nordeste 22 Norte 0 -- -- 55
2019-08-19 19:00:00 23.6 15 Norte 26 Norte 0 -- -- 49
2019-08-19 18:00:00 24.7 12 Norte 23 Norte 0 -- -- 48
2019-08-19 17:00:00 24.8 15 Norte 27 Norte 0 -- -- 47
2019-08-19 16:00:00 24.2 14 Nordeste 27 Norte 0 -- -- 49
2019-08-19 15:00:00 24.9 14 Nordeste 29 Nordeste 0 -- -- 49
2019-08-19 14:00:00 23.5 15 Norte 32 Norte 0 -- -- 50
2019-08-19 13:00:00 24 16 Nordeste 33 Nordeste 0 -- -- 49
2019-08-19 12:00:00 23.9 18 Nordeste 28 Norte 0 -- -- 50
2019-08-19 11:00:00 22.8 4 Sudoeste 12 Sudeste 0 -- -- 55
2019-08-19 10:00:00 21.4 7 Nordeste 18 Nordeste 0 -- -- 61
2019-08-19 09:00:00 20.4 9 Nordeste 15 Nordeste 0 -- -- 63
2019-08-19 08:00:00 18.2 2 Sudoeste 8 Nordeste 0 -- -- 73
2019-08-19 07:00:00 19 5 Norte 23 Norte 0 -- -- 68
2019-08-19 06:00:00 19.2 14 Norte 23 Norte 0 -- -- 67
2019-08-19 05:00:00 19.2 15 Norte 25 Norte 0 -- -- 69
2019-08-19 04:00:00 19.4 12 Norte 23 Norte 0 -- -- 68
2019-08-19 03:00:00 20 8 Norte 20 Noroeste 0 -- -- 68
2019-08-19 02:00:00 20.3 10 Norte 23 Norte 0 -- -- 68
2019-08-19 01:00:00 21.2 9 Norte 30 Norte 0 -- -- 67
2019-08-19 00:00:00 22.2 21 Norte 31 Norte 0 -- -- 65
2019-08-18 23:00:00 23.4 15 Norte 24 Norte 0 -- -- 62
2019-08-18 22:00:00 25 12 Nordeste 32 Noroeste 0 -- -- 58
2019-08-18 21:00:00 27.3 18 Norte 39 Noroeste 0 -- -- 53
2019-08-18 20:00:00 33.7 9 Norte 21 Noroeste 0 -- -- 30
2019-08-18 19:00:00 36.2 13 Norte 23 Norte 0 -- -- 28
2019-08-18 18:00:00 38.4 12 Noroeste 26 Noroeste 0 -- -- 15
2019-08-18 17:00:00 38.1 10 Oeste 32 Sudoeste 0 -- -- 26
2019-08-18 16:00:00 39.2 9 Oeste 24 Nordeste 0 -- -- 17
2019-08-18 15:00:00 36 9 Nordeste 18 Nordeste 0 -- -- 29
2019-08-18 14:00:00 33.9 6 Este 17 Sudeste 0 -- -- 34
2019-08-18 13:00:00 30.5 8 Norte 14 Noroeste 0 -- -- 44
2019-08-18 12:00:00 28.4 6 Nordeste 13 Norte 0 -- -- 55
2019-08-18 11:00:00 26.1 5 Nordeste 11 Este 0 -- -- 65
2019-08-18 10:00:00 23.9 4 Nordeste 9 Nordeste 0 -- -- 75
2019-08-18 09:00:00 21.1 3 Este 8 Este 0 -- -- 85
2019-08-18 08:00:00 19.3 4 Sudeste 6 Sudeste 0 -- -- 92
2019-08-18 07:00:00 19.2 3 Sur 6 Sur 0 -- -- 90
2019-08-18 06:00:00 19.6 3 Sur 8 Sur 0 -- -- 89
2019-08-18 05:00:00 20.1 4 Sudoeste 9 Sudoeste 0 -- -- 87
2019-08-18 04:00:00 21.7 3 Sudoeste 10 Noroeste 0 -- -- 82
2019-08-18 03:00:00 22.8 7 Norte 13 Norte 0 -- -- 79
2019-08-18 02:00:00 24 6 Noroeste 15 Noroeste 0 -- -- 69
2019-08-18 01:00:00 25.7 6 Noroeste 11 Noroeste 0 -- -- 62
2019-08-18 00:00:00 27.3 6 Norte 17 Sudeste 0 -- -- 59
2019-08-17 23:00:00 30.2 7 Este 19 Sudeste 0 -- -- 51
2019-08-17 22:00:00 31.6 7 Sudeste 20 Sudeste 0 -- -- 44
2019-08-17 21:00:00 33.5 6 Sudeste 20 Este 0 -- -- 34
2019-08-17 20:00:00 36.1 11 Este 26 Este 0 -- -- 30
2019-08-17 19:00:00 37.6 14 Sudeste 27 Sudeste 0 -- -- 28
2019-08-17 18:00:00 39.6 12 Este 20 Este 0 -- -- 22
2019-08-17 17:00:00 38.8 12 Este 19 Este 0 -- -- 23
2019-08-17 16:00:00 37.8 9 Este 18 Este 0 -- -- 27
2019-08-17 15:00:00 34.9 5 Nordeste 15 Este 0 -- -- 36
2019-08-17 14:00:00 33.3 5 Este 13 Este 0 -- -- 41
2019-08-17 13:00:00 31.7 5 Sudeste 13 Este 0 -- -- 41
2019-08-17 12:00:00 29.5 6 Este 13 Nordeste 0 -- -- 47
2019-08-17 11:00:00 27.6 6 Este 13 Este 0 -- -- 49
2019-08-17 10:00:00 25.2 3 Nordeste 7 Nordeste 0 -- -- 53
2019-08-17 09:00:00 21.5 0 Calma 4 Nordeste 0 -- -- 67
2019-08-17 08:00:00 18.6 3 Sudoeste 4 Sudoeste 0 -- -- 76
2019-08-17 07:00:00 18.9 3 Sudoeste 7 Sudoeste 0 -- -- 73
2019-08-17 06:00:00 19.9 4 Sudeste 8 Este 0 -- -- 70
2019-08-17 05:00:00 19.9 3 Sudoeste 9 Sudoeste 0 -- -- 66
2019-08-17 04:00:00 20.4 4 Sudoeste 6 Sur 0 -- -- 62
2019-08-17 03:00:00 21.5 3 Oeste 10 Norte 0 -- -- 59
2019-08-17 02:00:00 21.7 2 Sudoeste 8 Sudoeste 0 -- -- 55
2019-08-17 01:00:00 21.6 3 Sudoeste 8 Sudoeste 0 -- -- 57
2019-08-17 00:00:00 22.9 0 Calma 6 Norte 0 -- -- 53
2019-08-16 23:00:00 23.7 2 Sudoeste 7 Sudoeste 0 -- -- 52
2019-08-16 22:00:00 27.1 5 Sudoeste 9 Este 0 -- -- 43
2019-08-16 21:00:00 30 5 Este 13 Este 0 -- -- 37
2019-08-16 20:00:00 33.5 8 Este 21 Nordeste 0 -- -- 32
2019-08-16 19:00:00 33.8 13 Nordeste 24 Nordeste 0 -- -- 29
2019-08-16 18:00:00 34.6 11 Nordeste 20 Este 0 -- -- 28
2019-08-16 17:00:00 34.2 9 Este 22 Nordeste 0 -- -- 30
2019-08-16 16:00:00 31.8 9 Norte 21 Nordeste 0 -- -- 35
2019-08-16 15:00:00 30.6 10 Nordeste 24 Nordeste 0 -- -- 37
2019-08-16 14:00:00 28.8 6 Nordeste 14 Nordeste 0 -- -- 39
2019-08-16 13:00:00 26.1 5 Nordeste 14 Este 0 -- -- 45
2019-08-16 12:00:00 24.6 5 Este 12 Este 0 -- -- 46
2019-08-16 11:00:00 22.8 5 Sudeste 12 Nordeste 0 -- -- 51
2019-08-16 10:00:00 20.5 4 Nordeste 11 Este 0 -- -- 56
2019-08-16 09:00:00 18.2 6 Sudeste 12 Sudeste 0 -- -- 62
2019-08-16 08:00:00 14.8 4 Sur 5 Sudoeste 0 -- -- 77
2019-08-16 07:00:00 15.4 0 Calma 10 Sudeste 0 -- -- 73
2019-08-16 06:00:00 15.7 4 Sudeste 8 Sudeste 0 -- -- 73
2019-08-16 05:00:00 15.3 0 Calma 8 Sudoeste 0 -- -- 75
2019-08-16 04:00:00 16.3 5 Sudoeste 8 Sur 0 -- -- 70
2019-08-16 03:00:00 18.2 3 Sur 9 Sudeste 0 -- -- 63
2019-08-16 02:00:00 18.7 4 Este 10 Sudeste 0 -- -- 61
2019-08-16 01:00:00 20 4 Sudeste 13 Este 0 -- -- 58
2019-08-16 00:00:00 20.7 6 Sur 11 Sudeste 0 -- -- 55
2019-08-15 23:00:00 21.7 4 Este 17 Norte 0 -- -- 52
2019-08-15 22:00:00 23 8 Norte 21 Norte 0 -- -- 49
2019-08-15 21:00:00 24.1 16 Norte 35 Norte 0 -- -- 47
2019-08-15 20:00:00 26.2 19 Norte 38 Norte 0 -- -- 42
2019-08-15 19:00:00 27.9 20 Norte 37 Norte 0 -- -- 40
2019-08-15 18:00:00 28.9 16 Norte 32 Nordeste 0 -- -- 41
2019-08-15 17:00:00 28.8 19 Nordeste 33 Nordeste 0 -- -- 40
2019-08-15 16:00:00 29 13 Nordeste 29 Nordeste 0 -- -- 42
2019-08-15 15:00:00 28.2 15 Nordeste 31 Norte 0 -- -- 48
2019-08-15 14:00:00 27.7 14 Norte 30 Nordeste 0 -- -- 50
2019-08-15 13:00:00 26.9 12 Nordeste 27 Norte 0 -- -- 52
2019-08-15 12:00:00 26 13 Nordeste 24 Nordeste 0 -- -- 55
2019-08-15 11:00:00 24.6 7 Nordeste 18 Norte 0 -- -- 59
2019-08-15 10:00:00 22.4 6 Este 12 Nordeste 0 -- -- 66
2019-08-15 09:00:00 21.2 2 Sudeste 8 Sur 0 -- -- 70
2019-08-15 08:00:00 17.9 4 Sur 8 Sudoeste 0 -- -- 79
2019-08-15 07:00:00 16.7 5 Sudoeste 8 Sudoeste 0 -- -- 82
2019-08-15 06:00:00 16.9 3 Norte 6 Sur 0 -- -- 80
2019-08-15 05:00:00 17.9 2 Sudoeste 9 Sudoeste 0 -- -- 76
2019-08-15 04:00:00 18.4 4 Sudoeste 9 Sur 0 -- -- 73
2019-08-15 03:00:00 19 4 Sudoeste 11 Noroeste 0 -- -- 70
2019-08-15 02:00:00 21.7 5 Norte 18 Norte 0 -- -- 60
2019-08-15 01:00:00 22.2 5 Norte 17 Norte 0 -- -- 60
2019-08-15 00:00:00 22.9 5 Norte 12 Este 0 -- -- 52
2019-08-14 23:00:00 24.7 7 Nordeste 18 Norte 0 -- -- 45
2019-08-14 22:00:00 25.9 9 Norte 23 Nordeste 0 -- -- 44
2019-08-14 21:00:00 27.6 6 Norte 15 Nordeste 0 -- -- 36
2019-08-14 20:00:00 30.3 8 Nordeste 18 Nordeste 0 -- -- 30
2019-08-14 19:00:00 31.3 7 Nordeste 23 Nordeste 0 -- -- 28
2019-08-14 18:00:00 31.2 12 Nordeste 22 Nordeste 0 -- -- 29
2019-08-14 17:00:00 31.2 10 Nordeste 24 Este 0 -- -- 27
2019-08-14 16:00:00 30.3 10 Norte 21 Nordeste 0 -- -- 29
2019-08-14 15:00:00 29.6 14 Norte 25 Norte 0 -- -- 30
2019-08-14 14:00:00 29 12 Nordeste 21 Nordeste 0 -- -- 31
2019-08-14 13:00:00 27.1 9 Nordeste 17 Nordeste 0 -- -- 38
2019-08-14 12:00:00 24.4 4 Norte 11 Este 0 -- -- 43
2019-08-14 11:00:00 22.3 5 Sudeste 12 Nordeste 0 -- -- 46
2019-08-14 10:00:00 20.2 6 Este 13 Nordeste 0 -- -- 54
2019-08-14 09:00:00 17 2 Sudeste 8 Sudoeste 0 -- -- 61
2019-08-14 08:00:00 13.6 2 Sudeste 8 Sudoeste 0 -- -- 71
2019-08-14 07:00:00 12.1 5 Sudoeste 8 Sudoeste 0 -- -- 76
2019-08-14 06:00:00 12.8 0 Calma 9 Sudoeste 0 -- -- 75
2019-08-14 05:00:00 13.8 3 Oeste 9 Oeste 0 -- -- 69
2019-08-14 04:00:00 13 0 Calma 6 Oeste 0 -- -- 76
2019-08-14 03:00:00 14.2 0 Calma 7 Sur 0 -- -- 71
2019-08-14 02:00:00 15.2 5 Sudoeste 9 Sudoeste 0 -- -- 68
2019-08-14 01:00:00 15.8 4 Sur 9 Sur 0 -- -- 66
2019-08-14 00:00:00 16.4 5 Sudoeste 10 Norte 0 -- -- 63
2019-08-13 23:00:00 19.5 7 Norte 15 Nordeste 0 -- -- 53
2019-08-13 22:00:00 20.7 6 Norte 23 Norte 0 -- -- 48
2019-08-13 21:00:00 22.3 14 Norte 31 Norte 0 -- -- 43
2019-08-13 20:00:00 24.2 13 Norte 30 Norte 0 -- -- 39
2019-08-13 19:00:00 25.2 17 Nordeste 32 Norte 0 -- -- 39
2019-08-13 18:00:00 26.2 18 Nordeste 32 Norte 0 -- -- 34
2019-08-13 17:00:00 26.5 14 Nordeste 30 Nordeste 0 -- -- 34
2019-08-13 16:00:00 25.8 14 Nordeste 27 Nordeste 0 -- -- 35
2019-08-13 15:00:00 24.8 16 Nordeste 28 Norte 0 -- -- 39
2019-08-13 14:00:00 24.2 12 Nordeste 31 Nordeste 0 -- -- 40
2019-08-13 13:00:00 22.9 15 Norte 28 Nordeste 0 -- -- 42
2019-08-13 12:00:00 21.6 17 Nordeste 27 Nordeste 0 -- -- 47
2019-08-13 11:00:00 20.8 11 Nordeste 20 Nordeste 0 -- -- 47
2019-08-13 10:00:00 19.5 10 Noroeste 20 Noroeste 0 -- -- 47
2019-08-13 09:00:00 16.9 0 Calma 11 Sudoeste 0 -- -- 53
2019-08-13 08:00:00 15.7 5 Oeste 12 Noroeste 0 -- -- 55
2019-08-13 07:00:00 15.6 2 Noroeste 7 Norte 0 -- -- 58
2019-08-13 06:00:00 16.5 6 Sudoeste 15 Noroeste 0 -- -- 53
2019-08-13 05:00:00 16.8 6 Noroeste 24 Noroeste 0 -- -- 52
2019-08-13 04:00:00 16.9 4 Oeste 23 Noroeste 0 -- -- 55
2019-08-13 03:00:00 16.6 7 Norte 16 Oeste 0 -- -- 56
2019-08-13 02:00:00 16.3 5 Noroeste 21 Norte 0 -- -- 59
2019-08-13 01:00:00 16.7 7 Norte 23 Norte 0 -- -- 58
2019-08-13 00:00:00 17 6 Norte 25 Noroeste 0 -- -- 56
2019-08-12 23:00:00 17.6 13 Norte 45 Norte 0 -- -- 56
2019-08-12 22:00:00 18.6 24 Norte 44 Norte 0 -- -- 53
2019-08-12 21:00:00 19.8 19 Norte 45 Norte 0 -- -- 49
2019-08-12 20:00:00 21.9 26 Norte 47 Norte 0 -- -- 43
2019-08-12 19:00:00 23.8 20 Norte 44 Norte 0 -- -- 39
2019-08-12 18:00:00 24.8 23 Norte 44 Norte 0 -- -- 35
2019-08-12 17:00:00 25.1 24 Norte 42 Nordeste 0 -- -- 36
2019-08-12 16:00:00 25.3 21 Norte 41 Norte 0 -- -- 37
2019-08-12 15:00:00 25 23 Norte 41 Norte 0 -- -- 37
2019-08-12 14:00:00 24.3 22 Norte 41 Nordeste 0 -- -- 38
2019-08-12 13:00:00 23.8 19 Norte 35 Nordeste 0 -- -- 41
2019-08-12 12:00:00 22.7 18 Norte 33 Norte 0 -- -- 44
2019-08-12 11:00:00 21.2 13 Norte 27 Norte 0 -- -- 48
2019-08-12 10:00:00 20.4 12 Norte 25 Noroeste 0 -- -- 53
2019-08-12 09:00:00 18.7 12 Norte 27 Norte 0 -- -- 58
2019-08-12 08:00:00 17.2 7 Norte 18 Norte 0 -- -- 63
2019-08-12 07:00:00 17.2 5 Oeste 24 Noroeste 0 -- -- 62
2019-08-12 06:00:00 16.7 5 Oeste 18 Norte 0 -- -- 65
2019-08-12 05:00:00 16.1 6 Sur 12 Sudoeste 0 -- -- 72
2019-08-12 04:00:00 16.9 4 Este 10 Sur 0 -- -- 70
2019-08-12 03:00:00 17.9 3 Nordeste 10 Sur 0 -- -- 66
2019-08-12 02:00:00 19 4 Sur 16 Norte 0 -- -- 61
2019-08-12 01:00:00 20 9 Noroeste 22 Norte 0 -- -- 57
2019-08-12 00:00:00 20.7 7 Noroeste 21 Noroeste 0 -- -- 56
2019-08-11 23:00:00 21.1 13 Noroeste 31 Norte 0 -- -- 54
2019-08-11 22:00:00 22.3 14 Norte 32 Norte 0 -- -- 52
2019-08-11 21:00:00 24.4 19 Norte 35 Norte 0 -- -- 48
2019-08-11 20:00:00 26.1 18 Norte 29 Nordeste 0 -- -- 43
2019-08-11 19:00:00 27.8 17 Norte 29 Norte 0 -- -- 41
2019-08-11 18:00:00 28.7 15 Norte 28 Norte 0 -- -- 39
2019-08-11 17:00:00 28.9 15 Norte 29 Norte 0 -- -- 40
2019-08-11 16:00:00 29.3 14 Nordeste 26 Nordeste 0 -- -- 40
2019-08-11 15:00:00 28.5 10 Nordeste 27 Nordeste 0 -- -- 41
2019-08-11 14:00:00 27.1 14 Nordeste 25 Nordeste 0 -- -- 46
2019-08-11 13:00:00 26.9 9 Norte 34 Noroeste 0 -- -- 48
2019-08-11 12:00:00 25.1 6 Sur 14 Sudeste 0 -- -- 53
2019-08-11 11:00:00 21.9 10 Nordeste 21 Nordeste 0 -- -- 63
2019-08-11 10:00:00 21.5 4 Este 17 Este 0 -- -- 63
2019-08-11 09:00:00 20.3 8 Sudeste 13 Sudeste 0 -- -- 68
2019-08-11 08:00:00 18.8 4 Nordeste 9 Este 0 -- -- 74
2019-08-11 07:00:00 18.8 5 Sudeste 12 Este 0 -- -- 71
2019-08-11 06:00:00 19.5 7 Sudeste 13 Sudeste 0 -- -- 68
2019-08-11 05:00:00 19.9 6 Este 15 Sudeste 0 -- -- 66
2019-08-11 04:00:00 20.3 6 Sudeste 18 Este 0 -- -- 65
2019-08-11 03:00:00 21.3 6 Este 18 Sudeste 0 -- -- 62
2019-08-11 02:00:00 22 12 Sur 18 Sur 0 -- -- 60
2019-08-11 01:00:00 22.6 3 Sudeste 15 Este 0 -- -- 58
2019-08-11 00:00:00 23.2 3 Sur 12 Nordeste 0 -- -- 58
2019-08-10 23:00:00 23.4 6 Nordeste 10 Nordeste 0 -- -- 55
2019-08-10 22:00:00 24.9 0 Calma 8 Norte 0 -- -- 50
2019-08-10 21:00:00 26.9 6 Norte 21 Nordeste 0 -- -- 45
2019-08-10 20:00:00 29.5 11 Nordeste 18 Norte 0 -- -- 40
2019-08-10 19:00:00 30.3 9 Nordeste 21 Norte 0 -- -- 38
2019-08-10 18:00:00 30.5 10 Nordeste 25 Norte 0 -- -- 37
2019-08-10 17:00:00 30.5 15 Nordeste 29 Nordeste 0 -- -- 37
2019-08-10 16:00:00 30.1 15 Nordeste 26 Nordeste 0 -- -- 37
2019-08-10 15:00:00 29.5 14 Nordeste 28 Nordeste 0 -- -- 39
2019-08-10 14:00:00 28.7 12 Nordeste 25 Este 0 -- -- 41
2019-08-10 13:00:00 28.1 12 Nordeste 21 Este 0 -- -- 43
2019-08-10 12:00:00 26.8 8 Nordeste 17 Nordeste 0 -- -- 47
2019-08-10 11:00:00 26 4 Este 11 Este 0 -- -- 50
2019-08-10 10:00:00 24.6 5 Nordeste 12 Este 0 -- -- 54
2019-08-10 09:00:00 22.2 5 Sudeste 9 Sudeste 0 -- -- 59
2019-08-10 08:00:00 21.3 3 Este 7 Este 0 -- -- 63
2019-08-10 07:00:00 21 3 Sudoeste 7 Este 0 -- -- 66
2019-08-10 06:00:00 20.8 3 Este 9 Sudeste 0 -- -- 66
2019-08-10 05:00:00 20.7 2 Norte 8 Norte 0 -- -- 66
2019-08-10 04:00:00 21.8 5 Este 14 Oeste 0 -- -- 63
2019-08-10 03:00:00 23.7 6 Oeste 24 Sudoeste 0 -- -- 54
2019-08-10 02:00:00 24.4 11 Oeste 29 Oeste 0 -- -- 51
2019-08-10 01:00:00 24.5 4 Oeste 10 Oeste 0 -- -- 51
2019-08-10 00:00:00 25.7 7 Oeste 33 Oeste 0 -- -- 48
2019-08-09 23:00:00 26.6 14 Oeste 36 Oeste 0 -- -- 47
2019-08-09 22:00:00 28.5 15 Noroeste 44 Noroeste 0 -- -- 51
2019-08-09 21:00:00 33.3 11 Noroeste 29 Oeste 0 -- -- 40
2019-08-09 20:00:00 36.1 13 Oeste 31 Oeste 0 -- -- 31
2019-08-09 19:00:00 36.6 13 Sudoeste 36 Oeste 0 -- -- 29
2019-08-09 18:00:00 37.6 17 Oeste 43 Sudoeste 0 -- -- 28
2019-08-09 17:00:00 37.7 16 Sudoeste 36 Oeste 0 -- -- 28
2019-08-09 16:00:00 37.3 21 Sudoeste 41 Sudoeste 0 -- -- 27
2019-08-09 15:00:00 37.1 18 Sudoeste 49 Oeste 0 -- -- 28
2019-08-09 14:00:00 36.1 18 Oeste 42 Oeste 0 -- -- 28
2019-08-09 13:00:00 35.5 22 Sudoeste 37 Sudoeste 0 -- -- 28
2019-08-09 12:00:00 33.8 22 Sudoeste 39 Sudoeste 0 -- -- 32
2019-08-09 11:00:00 32.2 14 Sudoeste 37 Sudoeste 0 -- -- 35
2019-08-09 10:00:00 30.4 9 Oeste 23 Oeste 0 -- -- 39
2019-08-09 09:00:00 27.3 5 Oeste 11 Sudoeste 0 -- -- 44
2019-08-09 08:00:00 22.1 5 Sudoeste 12 Sudoeste 0 -- -- 59
2019-08-09 07:00:00 21.6 4 Sur 9 Oeste 0 -- -- 59
2019-08-09 06:00:00 21.4 3 Sur 6 Sudoeste 0 -- -- 60
2019-08-09 05:00:00 23.3 3 Sur 9 Oeste 0 -- -- 54
2019-08-09 04:00:00 25.1 4 Sudoeste 13 Oeste 0 -- -- 47
2019-08-09 03:00:00 27.6 7 Sudoeste 12 Oeste 0 -- -- 40
2019-08-09 02:00:00 25.6 3 Sudoeste 9 Sudoeste 0 -- -- 47
2019-08-09 01:00:00 25.5 4 Sudoeste 7 Sudoeste 0 -- -- 49
2019-08-09 00:00:00 26.5 5 Sur 8 Sudoeste 0 -- -- 48
2019-08-08 23:00:00 30 5 Sudoeste 16 Sudoeste 0 -- -- 39
2019-08-08 22:00:00 33.2 9 Sudoeste 22 Sudoeste 0 -- -- 33
2019-08-08 21:00:00 34.1 8 Sudoeste 18 Sudoeste 0 -- -- 32
2019-08-08 20:00:00 35.7 8 Sudoeste 27 Sudoeste 0 -- -- 30
2019-08-08 19:00:00 36.5 13 Sudoeste 31 Sur 0 -- -- 28
2019-08-08 18:00:00 36.6 9 Sudoeste 23 Noroeste 0 -- -- 28
2019-08-08 17:00:00 37.5 11 Sudoeste 23 Sudoeste 0 -- -- 27
2019-08-08 16:00:00 36.4 11 Oeste 27 Sudoeste 0 -- -- 28
2019-08-08 15:00:00 35.3 16 Sudoeste 53 Sur 0 -- -- 30
2019-08-08 14:00:00 33.9 9 Sudoeste 26 Sur 0 -- -- 31
2019-08-08 13:00:00 32 13 Sudoeste 27 Sudoeste 0 -- -- 34
2019-08-08 12:00:00 30.3 15 Oeste 28 Oeste 0 -- -- 37
2019-08-08 11:00:00 28.8 15 Sudoeste 25 Sudoeste 0 -- -- 41
2019-08-08 10:00:00 26.8 14 Sudoeste 26 Sudoeste 0 -- -- 45
2019-08-08 09:00:00 25 9 Oeste 24 Oeste 0 -- -- 48
2019-08-08 08:00:00 23.5 8 Oeste 24 Oeste 0 -- -- 51
2019-08-08 07:00:00 22.7 9 Sudoeste 18 Sudoeste 0 -- -- 53
2019-08-08 06:00:00 22.8 2 Noroeste 14 Sudoeste 0 -- -- 52
2019-08-08 05:00:00 22 3 Oeste 9 Noroeste 0 -- -- 53
2019-08-08 04:00:00 22.4 4 Oeste 10 Sudoeste 0 -- -- 51
2019-08-08 03:00:00 22 5 Sudoeste 8 Sudoeste 0 -- -- 53
2019-08-08 02:00:00 22.9 3 Oeste 10 Oeste 0 -- -- 50
2019-08-08 01:00:00 26 4 Oeste 15 Noroeste 0 -- -- 41
2019-08-08 00:00:00 26.7 6 Oeste 19 Oeste 0 -- -- 41
2019-08-07 23:00:00 28.2 4 Oeste 18 Oeste 0 -- -- 38
2019-08-07 22:00:00 28.8 6 Oeste 24 Oeste 0 -- -- 37
2019-08-07 21:00:00 29.7 9 Oeste 23 Oeste 0 -- -- 35
2019-08-07 20:00:00 30.5 7 Oeste 25 Oeste 0 -- -- 33
2019-08-07 19:00:00 30.4 6 Oeste 27 Oeste 0 -- -- 34
2019-08-07 18:00:00 29.8 6 Sudoeste 18 Sudoeste 0 -- -- 43
2019-08-07 17:00:00 29 7 Nordeste 15 Norte 0 -- -- 49
2019-08-07 16:00:00 29.2 5 Nordeste 13 Nordeste 0 -- -- 44
2019-08-07 15:00:00 29.4 8 Nordeste 16 Este 0 -- -- 45
2019-08-07 14:00:00 30.4 9 Nordeste 16 Nordeste 0 -- -- 43
2019-08-07 13:00:00 29.7 8 Nordeste 14 Nordeste 0 -- -- 45
2019-08-07 12:00:00 27.9 5 Nordeste 15 Nordeste 0 -- -- 50
2019-08-07 11:00:00 25.6 11 Nordeste 17 Norte 0 -- -- 57
2019-08-07 10:00:00 24.9 5 Norte 12 Norte 0 -- -- 58
2019-08-07 09:00:00 23 4 Sudoeste 8 Oeste 0 -- -- 62
2019-08-07 08:00:00 20.4 2 Sudoeste 8 Sudoeste 0 -- -- 71
2019-08-07 07:00:00 21.4 0 Calma 13 Sudeste 0 -- -- 66
2019-08-07 06:00:00 21.9 9 Sudeste 22 Sudeste 0 -- -- 64
2019-08-07 05:00:00 22.2 10 Sur 18 Este 0 -- -- 64
2019-08-07 04:00:00 22.8 5 Sudeste 15 Nordeste 0 -- -- 64
2019-08-07 03:00:00 23.9 4 Este 11 Nordeste 0 -- -- 62
2019-08-07 02:00:00 24.4 5 Este 11 Este 0 -- -- 61
2019-08-07 01:00:00 25 3 Este 9 Oeste 0 -- -- 57
2019-08-07 00:00:00 25.5 4 Sudoeste 12 Sudoeste 0 -- -- 55
2019-08-06 23:00:00 26.8 3 Sur 14 Sudoeste 0 -- -- 49
2019-08-06 22:00:00 29.2 4 Norte 9 Norte 0 -- -- 40
2019-08-06 21:00:00 31.1 4 Nordeste 13 Norte 0 -- -- 37
2019-08-06 20:00:00 33.4 9 Norte 15 Norte 0 -- -- 34
2019-08-06 19:00:00 34.3 8 Norte 18 Nordeste 0 -- -- 32
2019-08-06 18:00:00 35.1 11 Norte 23 Norte 0 -- -- 30
2019-08-06 17:00:00 34.5 14 Norte 28 Norte 0 -- -- 31
2019-08-06 16:00:00 34.4 12 Norte 22 Norte 0 -- -- 36
2019-08-06 15:00:00 32.9 11 Norte 19 Norte 0 -- -- 37
2019-08-06 14:00:00 32.1 8 Nordeste 15 Norte 0 -- -- 42
2019-08-06 13:00:00 30.9 4 Este 13 Este 0 -- -- 45
2019-08-06 12:00:00 28.7 6 Este 12 Sudeste 0 -- -- 50
2019-08-06 11:00:00 26.1 5 Nordeste 13 Este 0 -- -- 56
2019-08-06 10:00:00 24.8 5 Sudeste 11 Este 0 -- -- 59
2019-08-06 09:00:00 21.6 4 Este 8 Este 0 -- -- 69
2019-08-06 08:00:00 19.7 4 Este 8 Este 0 -- -- 76
2019-08-06 07:00:00 19.9 3 Nordeste 12 Sudeste 0 -- -- 74
2019-08-06 06:00:00 21.3 5 Sudeste 14 Sudeste 0 -- -- 69
2019-08-06 05:00:00 22 8 Sudeste 14 Sudeste 0 -- -- 66
2019-08-06 04:00:00 22.7 8 Sudeste 15 Sudeste 0 -- -- 64
2019-08-06 03:00:00 23.9 6 Sudeste 14 Sudeste 0 -- -- 62
2019-08-06 02:00:00 25.3 6 Este 12 Este 0 -- -- 58
2019-08-06 01:00:00 25.4 4 Sur 12 Nordeste 0 -- -- 59
2019-08-06 00:00:00 27.7 9 Nordeste 14 Nordeste 0 -- -- 50
2019-08-05 23:00:00 27.8 3 Nordeste 7 Sur 0 -- -- 49
2019-08-05 22:00:00 29.1 3 Este 6 Sudoeste 0 -- -- 44
2019-08-05 21:00:00 33 4 Este 10 Este 0 -- -- 33
2019-08-05 20:00:00 36 7 Este 18 Este 0 -- -- 28
2019-08-05 19:00:00 37.2 10 Este 24 Nordeste 0 -- -- 29
2019-08-05 18:00:00 35.2 12 Norte 22 Norte 0 -- -- 34
2019-08-05 17:00:00 34.4 11 Norte 19 Norte 0 -- -- 38
2019-08-05 16:00:00 33 8 Norte 19 Nordeste 0 -- -- 40
2019-08-05 15:00:00 32 10 Nordeste 18 Nordeste 0 -- -- 43
2019-08-05 14:00:00 31 4 Este 15 Este 0 -- -- 45
2019-08-05 13:00:00 27.6 8 Nordeste 16 Este 0 -- -- 54
2019-08-05 12:00:00 27.5 7 Este 15 Este 0 -- -- 55
2019-08-05 11:00:00 25.5 5 Sudeste 11 Nordeste 0 -- -- 59
2019-08-05 10:00:00 24.1 4 Este 12 Sudeste 0 -- -- 64
2019-08-05 09:00:00 21.6 7 Este 12 Este 0 -- -- 72
2019-08-05 08:00:00 20 4 Este 11 Este 0 -- -- 77
2019-08-05 07:00:00 19.9 4 Sudeste 10 Sudeste 0 -- -- 76
2019-08-05 06:00:00 20.5 6 Sudeste 14 Sudeste 0 -- -- 74
2019-08-05 05:00:00 20.9 5 Sudeste 15 Nordeste 0 -- -- 72
2019-08-05 04:00:00 21.3 11 Este 24 Este 0 -- -- 71
2019-08-05 03:00:00 22.4 8 Este 23 Este 0 -- -- 67
2019-08-05 02:00:00 23.7 8 Este 21 Este 0 -- -- 63
2019-08-05 01:00:00 26.1 7 Este 15 Norte 0 -- -- 57
2019-08-05 00:00:00 27.9 5 Nordeste 11 Nordeste 0 -- -- 52
2019-08-04 23:00:00 29.8 7 Norte 23 Norte 0 -- -- 48
2019-08-04 22:00:00 30.4 12 Norte 21 Norte 0 -- -- 40
2019-08-04 21:00:00 32.7 3 Nordeste 10 Este 0 -- -- 37
2019-08-04 20:00:00 35.3 7 Nordeste 19 Nordeste 0 -- -- 31
2019-08-04 19:00:00 35.4 12 Norte 20 Norte 0 -- -- 32
2019-08-04 18:00:00 35.6 14 Norte 22 Norte 0 -- -- 31
2019-08-04 17:00:00 35.2 13 Norte 24 Norte 0 -- -- 34
2019-08-04 16:00:00 34.8 12 Nordeste 19 Norte 0 -- -- 36
2019-08-04 15:00:00 34.4 8 Nordeste 17 Nordeste 0 -- -- 36
2019-08-04 14:00:00 31.7 7 Norte 17 Este 0 -- -- 44
2019-08-04 13:00:00 30.4 6 Nordeste 15 Este 0 -- -- 48
2019-08-04 12:00:00 28.7 6 Nordeste 12 Este 0 -- -- 51
2019-08-04 11:00:00 26.7 5 Este 12 Nordeste 0 -- -- 56
2019-08-04 10:00:00 25.5 5 Nordeste 9 Nordeste 0 -- -- 59
2019-08-04 09:00:00 23 4 Este 8 Este 0 -- -- 68
2019-08-04 08:00:00 19.5 3 Sudoeste 6 Sudoeste 0 -- -- 82
2019-08-04 07:00:00 19.2 4 Sudoeste 5 Sudoeste 0 -- -- 81
2019-08-04 06:00:00 20.6 4 Oeste 6 Oeste 0 -- -- 78
2019-08-04 05:00:00 21.9 3 Noroeste 9 Noroeste 0 -- -- 73
2019-08-04 04:00:00 22.9 4 Oeste 14 Norte 0 -- -- 70
2019-08-04 03:00:00 24.1 6 Norte 13 Norte 0 -- -- 67
2019-08-04 02:00:00 24.3 7 Norte 15 Noroeste 0 -- -- 63
2019-08-04 01:00:00 24.7 3 Sudoeste 8 Sudoeste 0 -- -- 60
2019-08-04 00:00:00 25.8 0 Calma 7 Norte 0 -- -- 54
2019-08-03 23:00:00 27.5 2 Norte 9 Este 0 -- -- 48
2019-08-03 22:00:00 29.4 4 Norte 13 Nordeste 0 -- -- 40
2019-08-03 21:00:00 32.9 4 Nordeste 13 Este 0 -- -- 35
2019-08-03 20:00:00 35.8 6 Nordeste 13 Este 0 -- -- 30
2019-08-03 19:00:00 37.5 9 Este 23 Nordeste 0 -- -- 27
2019-08-03 18:00:00 37.8 10 Este 21 Este 0 -- -- 27
2019-08-03 17:00:00 37 7 Este 19 Nordeste 0 -- -- 27
2019-08-03 16:00:00 34.8 8 Este 20 Nordeste 0 -- -- 31
2019-08-03 15:00:00 32.7 10 Nordeste 25 Noroeste 0 -- -- 36
2019-08-03 14:00:00 31.6 8 Nordeste 28 Este 0 -- -- 36
2019-08-03 13:00:00 29.5 8 Nordeste 17 Norte 0 -- -- 39
2019-08-03 12:00:00 28.1 8 Nordeste 19 Este 0 -- -- 44
2019-08-03 11:00:00 26.8 5 Este 12 Este 0 -- -- 46
2019-08-03 10:00:00 24.7 3 Sudeste 8 Sur 0 -- -- 51
2019-08-03 09:00:00 21.3 3 Sur 5 Oeste 0 -- -- 61
2019-08-03 08:00:00 17.3 0 Calma 5 Sudoeste 0 -- -- 80
2019-08-03 07:00:00 16.8 5 Sudoeste 6 Sudoeste 0 -- -- 79
2019-08-03 06:00:00 17.1 2 Sudeste 7 Sudoeste 0 -- -- 74
2019-08-03 05:00:00 17.3 6 Sudoeste 8 Sudoeste 0 -- -- 70
2019-08-03 04:00:00 17.9 4 Sudoeste 5 Sudoeste 0 -- -- 65
2019-08-03 03:00:00 19.3 5 Sudoeste 7 Sudoeste 0 -- -- 55
2019-08-03 02:00:00 20.4 5 Sudoeste 9 Sudoeste 0 -- -- 53
2019-08-03 01:00:00 21.1 4 Sudoeste 8 Sur 0 -- -- 53
2019-08-03 00:00:00 22.2 5 Sudoeste 10 Norte 0 -- -- 54
2019-08-02 23:00:00 23.3 4 Oeste 8 Sudoeste 0 -- -- 54
2019-08-02 22:00:00 26.4 4 Norte 10 Norte 0 -- -- 43
2019-08-02 21:00:00 29.3 3 Norte 15 Nordeste 0 -- -- 38
2019-08-02 20:00:00 31.8 9 Nordeste 17 Nordeste 0 -- -- 31
2019-08-02 19:00:00 32.5 10 Norte 21 Nordeste 0 -- -- 31
2019-08-02 18:00:00 32.5 11 Nordeste 19 Norte 0 -- -- 34
2019-08-02 17:00:00 32 10 Nordeste 22 Nordeste 0 -- -- 40
2019-08-02 16:00:00 31 11 Norte 22 Nordeste 0 -- -- 41
2019-08-02 15:00:00 31.3 8 Este 21 Nordeste 0 -- -- 42
2019-08-02 14:00:00 29.4 7 Este 19 Nordeste 0 -- -- 46
2019-08-02 13:00:00 27.3 6 Norte 17 Nordeste 0 -- -- 51
2019-08-02 12:00:00 25.8 8 Nordeste 13 Nordeste 0 -- -- 55
2019-08-02 11:00:00 24.6 7 Este 14 Nordeste 0 -- -- 59
2019-08-02 10:00:00 23.2 6 Sudeste 11 Este 0 -- -- 66
2019-08-02 09:00:00 20.7 5 Este 10 Este 0 -- -- 74
2019-08-02 08:00:00 18.7 4 Sudeste 9 Sudeste 0 -- -- 81
2019-08-02 07:00:00 18.8 3 Sudeste 14 Sudeste 0 -- -- 79
2019-08-02 06:00:00 19.3 8 Sudeste 13 Sudeste 0 -- -- 77
2019-08-02 05:00:00 19.3 8 Sudeste 13 Sudeste 0 -- -- 78
2019-08-02 04:00:00 19.7 6 Sudeste 14 Sur 0 -- -- 78
2019-08-02 03:00:00 20 3 Sudoeste 12 Nordeste 0 -- -- 76
2019-08-02 02:00:00 20.9 0 Calma 20 Nordeste 0 -- -- 73
2019-08-02 01:00:00 21.9 13 Nordeste 21 Nordeste 0 -- -- 70
2019-08-02 00:00:00 23.3 11 Nordeste 21 Norte 0 -- -- 67
2019-08-01 23:00:00 24.7 14 Norte 28 Noroeste 0 -- -- 62
2019-08-01 22:00:00 27.4 10 Norte 26 Norte 0 -- -- 54
2019-08-01 21:00:00 28.3 5 Norte 24 Norte 0 -- -- 44
2019-08-01 20:00:00 30 17 Norte 26 Norte 0 -- -- 43
2019-08-01 19:00:00 31.2 14 Norte 25 Norte 0 -- -- 41
2019-08-01 18:00:00 32.3 14 Norte 24 Norte 0 -- -- 40
2019-08-01 17:00:00 31.8 8 Nordeste 21 Nordeste 0 -- -- 40
2019-08-01 16:00:00 30.7 7 Nordeste 20 Este 0 -- -- 45
2019-08-01 15:00:00 29.7 7 Sudeste 13 Este 0 -- -- 46
2019-08-01 14:00:00 27 6 Nordeste 13 Nordeste 0 -- -- 55
2019-08-01 13:00:00 26 5 Sudoeste 15 Nordeste 0 -- -- 57
2019-08-01 12:00:00 22.7 8 Nordeste 16 Nordeste 0 -- -- 69
2019-08-01 11:00:00 21.5 12 Norte 19 Norte 0 -- -- 71
2019-08-01 10:00:00 21.4 10 Norte 19 Norte 0 -- -- 77
2019-08-01 09:00:00 20.4 6 Norte 13 Norte 0 -- -- 78
2019-08-01 08:00:00 20.3 5 Norte 9 Noroeste 0 -- -- 84
2019-08-01 07:00:00 19.7 4 Norte 9 Norte 0 -- -- 85
2019-08-01 06:00:00 19.1 6 Noroeste 8 Noroeste 0 -- -- 85
2019-08-01 05:00:00 19.7 6 Norte 9 Norte 0 -- -- 83
2019-08-01 04:00:00 20.7 4 Noroeste 9 Norte 0 -- -- 80
2019-08-01 03:00:00 21.9 7 Norte 10 Sudeste 0 -- -- 75
2019-08-01 02:00:00 23 5 Nordeste 12 Este 0 -- -- 70
2019-08-01 01:00:00 24.1 8 Este 14 Este 0 -- -- 66
2019-08-01 00:00:00 25 5 Este 16 Sudeste 0 -- -- 64
2019-07-31 23:00:00 26.6 8 Este 23 Este 0 -- -- 58
2019-07-31 22:00:00 27.4 4 Este 14 Este 0 -- -- 51
2019-07-31 21:00:00 29.1 6 Este 16 Este 0 -- -- 43
2019-07-31 20:00:00 31.3 8 Este 18 Este 0 -- -- 35
2019-07-31 19:00:00 31.7 9 Este 30 Nordeste 0 -- -- 32
2019-07-31 18:00:00 29.8 10 Norte 21 Norte 0 -- -- 33
2019-07-31 17:00:00 29 12 Nordeste 23 Norte 0 -- -- 35
2019-07-31 16:00:00 27.6 11 Norte 20 Nordeste 0 -- -- 36
2019-07-31 15:00:00 26.6 7 Nordeste 22 Nordeste 0 -- -- 37
2019-07-31 14:00:00 25.5 6 Este 20 Nordeste 0 -- -- 37
2019-07-31 13:00:00 24 7 Este 15 Sur 0 -- -- 39
2019-07-31 12:00:00 22.6 8 Sudeste 17 Este 0 -- -- 45
2019-07-31 11:00:00 21.2 5 Este 12 Nordeste 0 -- -- 48
2019-07-31 10:00:00 19.8 5 Este 14 Sudeste 0 -- -- 53
2019-07-31 09:00:00 17.7 6 Este 15 Sudeste 0 -- -- 55
2019-07-31 08:00:00 16.3 9 Sudeste 18 Sudeste 0 -- -- 60
2019-07-31 07:00:00 15.6 8 Sudeste 15 Sudeste 0 -- -- 64
2019-07-31 06:00:00 15.8 9 Sur 15 Sur 0 -- -- 63
2019-07-31 05:00:00 16 4 Este 8 Sudoeste 0 -- -- 64
2019-07-31 04:00:00 16 0 Calma 9 Sudoeste 0 -- -- 66
2019-07-31 03:00:00 15.1 2 Sudoeste 10 Sudoeste 0 -- -- 65
2019-07-31 02:00:00 15.8 4 Oeste 9 Sudoeste 0 -- -- 62
2019-07-31 01:00:00 16.9 2 Noroeste 15 Norte 0 -- -- 56
2019-07-31 00:00:00 17.9 4 Oeste 25 Nordeste 0 -- -- 54
2019-07-30 23:00:00 18.6 6 Norte 24 Noroeste 0 -- -- 53
2019-07-30 22:00:00 20 12 Norte 28 Noroeste 0 -- -- 49
2019-07-30 21:00:00 21.9 9 Norte 42 Norte 0 -- -- 44
2019-07-30 20:00:00 23.7 21 Norte 39 Norte 0 -- -- 41
2019-07-30 19:00:00 25.4 21 Norte 37 Norte 0 -- -- 38
2019-07-30 18:00:00 26.4 21 Norte 38 Nordeste 0 -- -- 36
2019-07-30 17:00:00 27.1 19 Norte 36 Nordeste 0 -- -- 33
2019-07-30 16:00:00 26.6 19 Norte 34 Norte 0 -- -- 34
2019-07-30 15:00:00 26 19 Nordeste 32 Nordeste 0 -- -- 37
2019-07-30 14:00:00 25.1 18 Nordeste 36 Nordeste 0 -- -- 40
2019-07-30 13:00:00 24.2 17 Nordeste 33 Nordeste 0 -- -- 44
2019-07-30 12:00:00 23.1 16 Norte 35 Norte 0 -- -- 47
2019-07-30 11:00:00 22.3 16 Norte 31 Norte 0 -- -- 50
2019-07-30 10:00:00 20.4 22 Norte 34 Norte 0 -- -- 56
2019-07-30 09:00:00 19.5 12 Norte 27 Norte 0 -- -- 61
2019-07-30 08:00:00 17.9 6 Oeste 16 Noroeste 0 -- -- 67
2019-07-30 07:00:00 17.1 5 Noroeste 21 Noroeste 0 -- -- 70
2019-07-30 06:00:00 17.2 7 Norte 19 Norte 0 -- -- 72
2019-07-30 05:00:00 17.9 12 Norte 21 Norte 0 -- -- 70
2019-07-30 04:00:00 18.1 13 Norte 24 Norte 0 -- -- 68
2019-07-30 03:00:00 18 8 Norte 14 Noroeste 0 -- -- 70
2019-07-30 02:00:00 18.6 5 Norte 20 Norte 0 -- -- 70
2019-07-30 01:00:00 19.8 9 Norte 25 Norte 0 -- -- 66
2019-07-30 00:00:00 21.1 12 Norte 31 Nordeste 0 -- -- 62
2019-07-29 23:00:00 23.7 14 Nordeste 27 Norte 0 -- -- 56
2019-07-29 22:00:00 26.8 12 Norte 33 Norte 0 -- -- 46
2019-07-29 21:00:00 30.5 2 Nordeste 11 Este 0 -- -- 33
2019-07-29 20:00:00 32.7 5 Este 16 Norte 0 -- -- 30
2019-07-29 19:00:00 32.8 10 Nordeste 17 Nordeste 0 -- -- 27
2019-07-29 18:00:00 36.1 8 Este 16 Este 0 -- -- 24
2019-07-29 17:00:00 35.2 6 Nordeste 17 Este 0 -- -- 24
2019-07-29 16:00:00 35.1 7 Este 21 Este 0 -- -- 25
2019-07-29 15:00:00 34.2 9 Este 19 Nordeste 0 -- -- 26
2019-07-29 14:00:00 32.7 9 Este 17 Este 0 -- -- 30
2019-07-29 13:00:00 30.7 8 Este 14 Este 0 -- -- 35
2019-07-29 12:00:00 28.4 6 Este 12 Este 0 -- -- 39
2019-07-29 11:00:00 25.4 5 Nordeste 9 Norte 0 -- -- 44
2019-07-29 10:00:00 23.6 6 Este 10 Este 0 -- -- 49
2019-07-29 09:00:00 20.1 4 Sur 9 Sudoeste 0 -- -- 56
2019-07-29 08:00:00 17.1 3 Sudoeste 12 Sudoeste 0 -- -- 66
2019-07-29 07:00:00 16.1 7 Sudoeste 15 Sur 0 -- -- 68
2019-07-29 06:00:00 15.2 2 Sur 11 Oeste 0 -- -- 71
2019-07-29 05:00:00 15.5 2 Sur 9 Sudoeste 0 -- -- 70
2019-07-29 04:00:00 14.9 3 Este 6 Sudoeste 0 -- -- 76
2019-07-29 03:00:00 14.8 3 Sur 6 Sur 0 -- -- 77
2019-07-29 02:00:00 15.3 0 Calma 6 Sudoeste 0 -- -- 76
2019-07-29 01:00:00 16.2 5 Sudoeste 8 Sudoeste 0 -- -- 73
2019-07-29 00:00:00 17 5 Sur 8 Sudoeste 0 -- -- 70
2019-07-28 23:00:00 19.1 4 Sudoeste 6 Sudoeste 0 -- -- 62
2019-07-28 22:00:00 22.2 5 Nordeste 14 Norte 0 -- -- 48
2019-07-28 21:00:00 24.2 0 Calma 22 Nordeste 0 -- -- 44
2019-07-28 20:00:00 25.6 13 Nordeste 24 Nordeste 0 -- -- 41
2019-07-28 19:00:00 26.3 14 Nordeste 32 Nordeste 0 -- -- 40
2019-07-28 18:00:00 26.7 15 Nordeste 31 Nordeste 0 -- -- 41
2019-07-28 17:00:00 27 14 Norte 30 Nordeste 0 -- -- 39
2019-07-28 16:00:00 26.7 10 Norte 29 Nordeste 0 -- -- 38
2019-07-28 15:00:00 25.8 15 Nordeste 30 Nordeste 0 -- -- 41
2019-07-28 14:00:00 24.6 15 Nordeste 25 Norte 0 -- -- 43
2019-07-28 13:00:00 24.1 5 Este 24 Norte 0 -- -- 45
2019-07-28 12:00:00 22.6 14 Norte 24 Norte 0 -- -- 48
2019-07-28 11:00:00 21.5 12 Noroeste 33 Noroeste 0 -- -- 52
2019-07-28 10:00:00 20.4 15 Norte 24 Noroeste 0 -- -- 55
2019-07-28 09:00:00 18.8 9 Norte 20 Norte 0 -- -- 60
2019-07-28 08:00:00 15.4 3 Oeste 12 Sudoeste 0 -- -- 71
2019-07-28 07:00:00 14.7 4 Nordeste 13 Norte 0 -- -- 73
2019-07-28 06:00:00 15 4 Sur 23 Noroeste 0 -- -- 71
2019-07-28 05:00:00 16.1 11 Noroeste 20 Noroeste 0 -- -- 67
2019-07-28 04:00:00 15.6 6 Norte 15 Noroeste 0 -- -- 71
2019-07-28 03:00:00 16.6 6 Noroeste 23 Noroeste 0 -- -- 68
2019-07-28 02:00:00 16.1 6 Noroeste 17 Norte 0 -- -- 71
2019-07-28 01:00:00 17.3 13 Norte 23 Noroeste 0 -- -- 67
2019-07-28 00:00:00 17.9 10 Norte 18 Norte 0 -- -- 64
2019-07-27 23:00:00 18.6 12 Norte 24 Noroeste 0 -- -- 64
2019-07-26 12:00:00 -- -- -- -- -- -- -- -- --
2019-07-26 11:00:00 25.5 7 Nordeste 12 Nordeste 0 -- -- 61
2019-07-26 10:00:00 23.4 4 Sudoeste 16 Sudoeste 0 -- -- 70
2019-07-26 09:00:00 22.9 4 Norte 15 Nordeste 0 -- -- 73
2019-07-26 08:00:00 22.6 9 Norte 22 Norte 0 -- -- 73
2019-07-26 07:00:00 22.7 11 Nordeste 21 Nordeste 0 -- -- 71
2019-07-26 06:00:00 23.2 6 Norte 18 Nordeste 0 -- -- 68
2019-07-26 05:00:00 24.3 6 Nordeste 13 Nordeste 0 -- -- 64
2019-07-26 04:00:00 25.2 4 Este 22 Norte 0 -- -- 58
2019-07-26 03:00:00 26 11 Norte 19 Norte 0 -- -- 54
2019-07-26 02:00:00 26.4 4 Norte 29 Norte 0 -- -- 49
2019-07-26 01:00:00 26.9 4 Norte 13 Nordeste 0 -- -- 46
2019-07-26 00:00:00 27.4 4 Nordeste 12 Este 0 -- -- 43
2019-07-25 23:00:00 29.7 5 Sudeste 25 Sudeste 0 -- -- 38
2019-07-25 22:00:00 30.1 16 Sur 36 Sur 0 -- -- 36
2019-07-25 21:00:00 30 19 Sur 39 Sur 0 -- -- 40
2019-07-25 20:00:00 31.1 17 Sudeste 37 Este 0.6 -- -- 41
2019-07-25 19:00:00 -- 26 Sur 63 Sur 1.8 -- -- --
2019-07-25 18:00:00 34.7 8 Sudeste 22 Sudeste 0 -- -- 31
2019-07-25 17:00:00 29.6 9 Sudoeste 54 Sur 0 -- -- 41
2019-07-25 16:00:00 32.7 27 Sur 49 Sur 0 -- -- 33
2019-07-25 15:00:00 38.5 9 Nordeste 19 Nordeste 0 -- -- 25
2019-07-25 14:00:00 36.7 7 Nordeste 17 Este 0 -- -- 26
2019-07-25 13:00:00 34.7 8 Nordeste 12 Nordeste 0 -- -- 28
2019-07-25 12:00:00 33.3 6 Este 11 Este 0 -- -- 35
2019-07-25 11:00:00 30 3 Nordeste 9 Este 0 -- -- 44
2019-07-25 10:00:00 27.4 6 Nordeste 8 Nordeste 0 -- -- 53
2019-07-25 09:00:00 24.8 3 Norte 7 Nordeste 0 -- -- 62
2019-07-25 08:00:00 22.4 0 Calma 7 Sudoeste 0 -- -- 62
2019-07-25 07:00:00 22.8 3 Sudoeste 12 Nordeste 0 -- -- 61
2019-07-25 06:00:00 28.1 5 Norte 22 Sur 0 -- -- 34
2019-07-25 05:00:00 29.4 6 Oeste 23 Sudoeste 0 -- -- 30
2019-07-25 04:00:00 31 12 Sudoeste 31 Sudoeste 0 -- -- 29
2019-07-25 03:00:00 30.8 12 Sur 19 Sur 0 -- -- 30
2019-07-25 02:00:00 29.1 5 Noroeste 24 Sudoeste 0 -- -- 34
2019-07-25 01:00:00 31.8 7 Sudoeste 31 Sudoeste 0 -- -- 30
2019-07-25 00:00:00 27.3 4 Oeste 11 Este 0 -- -- 42
2019-07-24 23:00:00 26.9 3 Oeste 8 Sudoeste 0 -- -- 47
2019-07-24 22:00:00 29.2 5 Sudoeste 10 Sur 0 -- -- 42
2019-07-24 21:00:00 32.8 4 Sudeste 12 Oeste 0 -- -- 33
2019-07-24 20:00:00 33.8 5 Noroeste 18 Nordeste 0 -- -- 34
2019-07-24 19:00:00 33.7 5 Norte 15 Norte 0 -- -- 35
2019-07-24 18:00:00 33.4 8 Norte 19 Oeste 0 -- -- 31
2019-07-24 17:00:00 38.4 10 Este 27 Este 0 -- -- 24
2019-07-24 16:00:00 40.5 17 Sudeste 32 Sudeste 0 -- -- 20
2019-07-24 15:00:00 39.5 8 Nordeste 23 Este 0 -- -- 20
2019-07-24 14:00:00 36.3 11 Norte 19 Norte 0 -- -- 27
2019-07-24 13:00:00 33.1 9 Norte 14 Norte 0 -- -- 33
2019-07-24 12:00:00 32.9 2 Nordeste 11 Nordeste 0 -- -- 34
2019-07-24 11:00:00 33.1 7 Este 12 Este 0 -- -- 34
2019-07-24 10:00:00 29.3 5 Nordeste 8 Nordeste 0 -- -- 41
2019-07-24 09:00:00 25.1 3 Este 6 Oeste 0 -- -- 51
2019-07-24 08:00:00 22.1 3 Nordeste 5 Nordeste 0 -- -- 62
2019-07-24 07:00:00 20.3 4 Oeste 6 Oeste 0 -- -- 64
2019-07-24 06:00:00 21.1 4 Oeste 10 Sudoeste 0 -- -- 57
2019-07-24 05:00:00 22.3 0 Calma 7 Noroeste 0 -- -- 55
2019-07-24 04:00:00 23.3 4 Nordeste 10 Sudoeste 0 -- -- 52
2019-07-24 03:00:00 25.2 8 Sudoeste 12 Sudoeste 0 -- -- 46
2019-07-24 02:00:00 28.9 4 Noroeste 17 Oeste 0 -- -- 36
2019-07-24 01:00:00 30.3 10 Sudoeste 33 Sudoeste 0 -- -- 33
2019-07-24 00:00:00 32.5 16 Sudoeste 37 Oeste 0 -- -- 27